Decoded Metar for YHID ( in ) (IATA:) | Meteo·Mobile Aviation Weather
aviador You're here:

YHID Decoded Metar

in
Report Time2018-09-23 14:00:00
UTC Time2018-09-23 14:20:03
Flight Rules vfr VFR
Wind120° at 11 kt
W.Decomp.*RWY 14: 10.3 kt HW 3.8 kt LCW
RWY 08: 8.4 kt HW 7.1 kt RCW
W.Rank120° ranks 2
Current wind is below 120° avg. (12.2)
Visibility9999 m
Phenomena:N/A
Clouds:Scattered 060 Hf
Expected CloudBase > 1,600 ft AGL from Temp-Dew spread
CeilingNone
Temp24°C
Dew Point20°C (78% RH)
AAT23.7°C
QNH1015 hPa
Raw Report
METAR YHID 231400Z AUTO 12011KT 9999 // SCT060 24/20 Q1015=

Extra information for YHID:More info

Social comments